Time;durP1;ratioP1;P1;durP2;ratioP2;P2;SDS_P1;SDS_P2;PMS_P1;PMS_P2;Temp;Humidity;BMP_temperature;BMP_pressure;BME280_temperature;BME280_humidity;BME280_pressure;Samples;Min_cycle;Max_cycle;Signal;HPM_P1;HPM_P2
2022/03/10 00:00:10;;;;;;;44.83;38.17;;;;;;;1.36;90.80;102826.91;5053952;28;20439;-45
2022/03/10 00:02:39;;;;;;;38.77;34.90;;;;;;;1.36;90.70;102820.78;5053805;28;20546;-44
2022/03/10 00:05:10;;;;;;;40.60;36.70;;;;;;;1.33;90.75;102818.34;5053777;28;20427;-44
2022/03/10 00:07:40;;;;;;;41.50;37.03;;;;;;;1.30;90.64;102821.13;5052814;28;20907;-44
2022/03/10 00:10:09;;;;;;;40.50;36.50;;;;;;;1.26;91.26;102812.56;5053839;28;20804;-45
2022/03/10 00:12:37;;;;;;;40.53;36.30;;;;;;;1.26;92.18;102817.84;5053531;28;20457;-44
2022/03/10 00:15:08;;;;;;;42.20;37.80;;;;;;;1.24;92.40;102817.06;5053685;28;20505;-44
2022/03/10 00:17:35;;;;;;;41.37;37.10;;;;;;;1.22;91.67;102812.84;5052709;28;20538;-45
2022/03/10 00:20:03;;;;;;;43.30;37.77;;;;;;;1.21;91.99;102819.03;5053670;28;20859;-47
2022/03/10 00:22:31;;;;;;;41.03;36.70;;;;;;;1.20;92.03;102812.91;5053252;28;20546;-44
2022/03/10 00:25:00;;;;;;;42.13;38.03;;;;;;;1.20;92.42;102819.94;5053854;28;20431;-46
2022/03/10 00:27:28;;;;;;;42.77;38.17;;;;;;;1.19;92.41;102813.88;5052565;28;20423;-45
2022/03/10 00:29:56;;;;;;;41.50;37.10;;;;;;;1.13;92.13;102806.31;5053351;28;20431;-45
2022/03/10 00:32:23;;;;;;;42.70;38.13;;;;;;;1.13;92.24;102813.34;5052990;28;20466;-44
2022/03/10 00:34:51;;;;;;;42.53;38.13;;;;;;;1.10;92.62;102819.63;5053481;28;20955;-44
2022/03/10 00:37:18;;;;;;;43.37;38.93;;;;;;;1.07;92.98;102819.81;5052506;28;21006;-44
2022/03/10 00:39:48;;;;;;;40.50;36.40;;;;;;;1.08;93.26;102832.00;5053246;28;20439;-44
2022/03/10 00:42:16;;;;;;;41.87;37.60;;;;;;;1.06;92.68;102834.72;5053092;28;20454;-45
2022/03/10 00:44:44;;;;;;;42.30;37.93;;;;;;;1.03;93.07;102829.63;5052708;28;20438;-45
2022/03/10 00:47:12;;;;;;;46.60;41.50;;;;;;;1.04;93.28;102828.72;5052689;28;20433;-44
2022/03/10 00:49:39;;;;;;;40.30;35.90;;;;;;;1.03;93.36;102837.50;5052849;28;20450;-45
2022/03/10 00:52:07;;;;;;;41.33;36.90;;;;;;;1.02;92.91;102837.59;5052876;28;20494;-43
2022/03/10 00:54:34;;;;;;;39.20;35.47;;;;;;;1.01;92.51;102842.00;5053116;28;20526;-44
2022/03/10 00:57:02;;;;;;;40.13;36.33;;;;;;;0.98;92.10;102836.06;5052752;28;20474;-45
2022/03/10 00:59:31;;;;;;;40.00;35.90;;;;;;;0.96;92.19;102843.16;5051929;28;20545;-43
2022/03/10 01:01:58;;;;;;;37.97;34.03;;;;;;;0.94;92.12;102842.41;5052852;28;20534;-48
2022/03/10 01:04:26;;;;;;;39.63;35.70;;;;;;;0.92;91.71;102839.03;5052738;28;20427;-46
2022/03/10 01:06:54;;;;;;;39.40;35.47;;;;;;;0.91;91.81;102832.06;5052586;28;20435;-43
2022/03/10 01:09:22;;;;;;;40.83;36.80;;;;;;;0.88;91.90;102835.72;5051901;28;21051;-43
2022/03/10 01:11:49;;;;;;;39.50;35.27;;;;;;;0.85;91.63;102835.88;5052449;28;20438;-47
2022/03/10 01:14:17;;;;;;;38.93;34.90;;;;;;;0.81;91.38;102841.38;5052412;28;20954;-44
2022/03/10 01:16:46;;;;;;;39.93;35.83;;;;;;;0.80;91.74;102837.06;5052559;28;20442;-44
2022/03/10 01:19:15;;;;;;;41.83;36.00;;;;;;;0.78;91.95;102831.88;5050912;28;20498;-45
2022/03/10 01:21:42;;;;;;;42.33;37.93;;;;;;;0.77;91.56;102831.97;5052347;28;20435;-47
2022/03/10 01:24:10;;;;;;;45.63;40.97;;;;;;;0.75;92.04;102839.06;5053013;28;20453;-46
2022/03/10 01:26:38;;;;;;;43.43;38.00;;;;;;;0.74;92.36;102833.00;5052861;28;20427;-47
2022/03/10 01:29:06;;;;;;;39.00;35.30;;;;;;;0.74;92.50;102842.66;5052180;28;20459;-46
2022/03/10 01:31:33;;;;;;;43.10;38.53;;;;;;;0.73;92.06;102835.69;5052914;28;20438;-48
2022/03/10 01:34:02;;;;;;;42.07;38.00;;;;;;;0.71;92.26;102835.78;5052966;28;20494;-48
2022/03/10 01:36:33;;;;;;;42.07;36.57;;;;;;;0.71;92.21;102848.06;5052852;28;20432;-46
2022/03/10 01:39:04;;;;;;;41.27;37.37;;;;;;;0.68;92.63;102838.56;5051583;28;20460;-45
2022/03/10 01:41:35;;;;;;;42.13;37.63;;;;;;;0.66;92.78;102843.03;5052366;28;20436;-46
2022/03/10 01:44:05;;;;;;;44.37;38.03;;;;;;;0.64;92.38;102838.81;5052462;28;20462;-44
2022/03/10 01:46:37;;;;;;;41.20;36.70;;;;;;;0.61;92.68;102831.09;5052586;28;20423;-46
2022/03/10 01:49:07;;;;;;;44.70;39.90;;;;;;;0.56;92.29;102831.34;5051804;28;20473;-44
2022/03/10 01:51:35;;;;;;;43.13;38.50;;;;;;;0.54;92.53;102830.56;5052560;28;20431;-46
2022/03/10 01:54:03;;;;;;;39.93;35.70;;;;;;;0.52;92.62;102832.44;5052218;28;20534;-46
2022/03/10 01:56:32;;;;;;;41.23;36.83;;;;;;;0.46;92.88;102833.59;5052271;28;20427;-45
2022/03/10 01:59:02;;;;;;;39.63;35.63;;;;;;;0.40;92.53;102827.81;5051547;28;20493;-45
2022/03/10 02:01:31;;;;;;;41.67;37.20;;;;;;;0.33;91.69;102829.91;5052105;28;20441;-46
2022/03/10 02:03:59;;;;;;;40.60;34.00;;;;;;;0.27;92.37;102826.78;5052069;28;20463;-46
2022/03/10 02:06:29;;;;;;;42.20;37.43;;;;;;;0.23;92.43;102833.97;5052644;28;20437;-46
2022/03/10 02:11:43;;;;;;;40.40;36.20;;;;;;;0.18;92.07;102825.47;5052005;28;20522;-46
2022/03/10 02:19:45;;;;;;;39.27;35.20;;;;;;;0.11;92.04;102839.84;5052037;28;20793;-46
2022/03/10 02:22:16;;;;;;;41.80;37.40;;;;;;;0.11;92.38;102834.59;5052103;28;20471;-45
2022/03/10 02:24:45;;;;;;;42.70;38.00;;;;;;;0.12;93.15;102836.28;5052184;28;20441;-46
2022/03/10 02:27:18;;;;;;;39.90;35.90;;;;;;;0.16;93.09;102837.81;5051386;28;20435;-46
2022/03/10 02:29:47;;;;;;;49.17;37.27;;;;;;;0.20;93.27;102831.50;5052841;28;20431;-46
2022/03/10 02:32:18;;;;;;;40.47;36.53;;;;;;;0.24;93.25;102829.56;5056062;28;20873;-45
2022/03/10 02:34:47;;;;;;;40.70;36.73;;;;;;;0.27;93.28;102842.53;5056256;28;20430;-46
2022/03/10 02:37:17;;;;;;;41.47;37.00;;;;;;;0.30;93.91;102835.31;5055212;28;20437;-44
2022/03/10 02:39:46;;;;;;;41.20;37.20;;;;;;;0.32;94.38;102836.13;5056381;28;20481;-44
2022/03/10 02:42:14;;;;;;;40.00;36.33;;;;;;;0.35;94.21;102835.97;5056033;28;20455;-45
2022/03/10 02:44:42;;;;;;;41.67;37.47;;;;;;;0.37;94.73;102835.88;5056012;28;20431;-47
2022/03/10 02:47:10;;;;;;;43.17;38.63;;;;;;;0.32;94.37;102833.50;5056019;28;20530;-43
2022/03/10 02:49:41;;;;;;;40.40;36.30;;;;;;;0.31;94.15;102837.03;5055268;28;20530;-46
2022/03/10 02:52:09;;;;;;;42.90;37.43;;;;;;;0.33;95.18;102834.34;5055796;28;20542;-46
2022/03/10 02:54:44;;;;;;;41.33;36.93;;;;;;;0.33;94.69;102837.78;5056143;28;20435;-46
2022/03/10 02:57:14;;;;;;;41.57;37.00;;;;;;;0.31;94.56;102844.06;5055722;28;20979;-47
2022/03/10 02:59:42;;;;;;;39.93;36.03;;;;;;;0.30;94.21;102835.31;5055874;28;20467;-46
2022/03/10 03:02:10;;;;;;;40.27;36.07;;;;;;;0.29;94.49;102838.91;5055491;28;20550;-48
2022/03/10 03:04:38;;;;;;;39.33;35.67;;;;;;;0.32;94.79;102837.88;5055125;28;21067;-44
2022/03/10 03:07:05;;;;;;;41.27;37.07;;;;;;;0.32;95.24;102827.38;5055378;28;20523;-46
2022/03/10 03:09:33;;;;;;;43.03;39.07;;;;;;;0.33;94.71;102829.09;5054639;28;20459;-47
2022/03/10 03:12:02;;;;;;;41.90;37.90;;;;;;;0.31;94.65;102828.31;5055044;28;20433;-45
2022/03/10 03:14:30;;;;;;;39.73;35.73;;;;;;;0.27;94.09;102822.38;5055187;28;20434;-45
2022/03/10 03:16:58;;;;;;;40.63;36.83;;;;;;;0.25;94.16;102826.00;5055082;28;20517;-45
2022/03/10 03:19:26;;;;;;;39.13;35.57;;;;;;;0.24;94.18;102833.00;5054537;28;20478;-45
2022/03/10 03:21:53;;;;;;;39.37;35.50;;;;;;;0.24;94.70;102829.56;5054893;28;20951;-46
2022/03/10 03:24:22;;;;;;;39.17;35.53;;;;;;;0.24;94.62;102830.41;5055229;28;20439;-47
2022/03/10 03:26:49;;;;;;;39.33;35.50;;;;;;;0.23;94.21;102830.50;5054902;28;20427;-44
2022/03/10 03:29:18;;;;;;;39.80;35.90;;;;;;;0.21;93.90;102829.72;5054072;28;20542;-45
2022/03/10 03:31:49;;;;;;;38.20;34.43;;;;;;;0.22;94.20;102842.75;5054943;28;20423;-46
2022/03/10 03:34:17;;;;;;;39.77;35.67;;;;;;;0.21;94.48;102838.41;5054986;28;20435;-45
2022/03/10 03:36:46;;;;;;;37.60;33.87;;;;;;;0.20;94.04;102834.13;5055184;28;20441;-46
2022/03/10 03:39:15;;;;;;;38.47;34.80;;;;;;;0.22;93.83;102839.28;5053885;28;20475;-45
2022/03/10 03:41:42;;;;;;;39.27;35.73;;;;;;;0.22;94.00;102845.38;5053877;28;20523;-45
2022/03/10 03:44:11;;;;;;;38.83;35.20;;;;;;;0.24;94.13;102855.81;5054936;28;20446;-44
2022/03/10 03:46:41;;;;;;;39.97;36.33;;;;;;;0.24;94.14;102854.00;5046601;28;20427;-45
2022/03/10 03:49:11;;;;;;;36.90;33.83;;;;;;;0.23;93.57;102852.34;5054028;28;20458;-45
2022/03/10 03:51:39;;;;;;;37.00;33.50;;;;;;;0.21;93.16;102854.16;5054805;28;20774;-45
2022/03/10 03:54:10;;;;;;;37.63;33.90;;;;;;;0.19;93.77;102852.56;5054676;28;20801;-46
2022/03/10 03:56:38;;;;;;;39.33;35.20;;;;;;;0.12;93.42;102857.25;5054617;28;20431;-45
2022/03/10 03:59:06;;;;;;;39.00;35.00;;;;;;;0.08;93.45;102850.50;5053826;28;20490;-48
2022/03/10 04:01:34;;;;;;;38.00;34.27;;;;;;;0.03;92.72;102864.78;5054407;28;20435;-49
2022/03/10 04:04:03;;;;;;;38.03;34.17;;;;;;;0.01;92.86;102862.22;5054337;28;20501;-47
2022/03/10 04:06:31;;;;;;;36.50;32.90;;;;;;;-0.02;93.30;102868.47;5054662;28;20530;-49
2022/03/10 04:08:58;;;;;;;38.33;34.43;;;;;;;0.00;94.16;102860.53;5053941;28;20469;-46
2022/03/10 04:11:26;;;;;;;39.67;35.43;;;;;;;0.03;93.66;102864.78;5054615;28;20436;-47
2022/03/10 04:13:54;;;;;;;36.47;32.63;;;;;;;0.10;94.64;102871.38;5054436;28;20456;-47
2022/03/10 04:16:21;;;;;;;38.13;34.43;;;;;;;0.18;95.05;102872.69;5054324;28;20518;-46
2022/03/10 04:18:49;;;;;;;37.40;33.63;;;;;;;0.23;94.90;102873.31;5053496;28;20478;-46
2022/03/10 04:21:19;;;;;;;36.33;32.73;;;;;;;0.24;94.44;102875.00;5054373;28;20538;-44
2022/03/10 04:23:47;;;;;;;35.77;32.47;;;;;;;0.26;94.22;102878.41;5054323;28;20553;-46
2022/03/10 04:26:14;;;;;;;37.27;33.53;;;;;;;0.26;94.20;102865.28;5054082;28;20518;-48
2022/03/10 04:28:42;;;;;;;37.50;33.50;;;;;;;0.24;94.31;102864.50;5053397;28;20461;-44
2022/03/10 04:31:09;;;;;;;35.83;32.63;;;;;;;0.21;93.83;102864.66;5054014;28;20963;-45
2022/03/10 04:33:38;;;;;;;36.53;33.03;;;;;;;0.18;93.26;102858.75;5053804;28;20466;-45
2022/03/10 04:36:05;;;;;;;37.47;33.87;;;;;;;0.17;93.74;102860.53;5053210;28;20587;-44
2022/03/10 04:38:34;;;;;;;39.37;35.17;;;;;;;0.20;94.33;102859.50;5053141;28;20824;-46
2022/03/10 04:41:02;;;;;;;38.70;34.80;;;;;;;0.25;94.88;102863.59;5053723;28;20434;-46
2022/03/10 04:43:29;;;;;;;36.67;33.17;;;;;;;0.29;94.79;102857.28;5053837;28;20462;-45
2022/03/10 04:45:59;;;;;;;37.47;33.63;;;;;;;0.36;94.90;102853.38;5053663;28;20437;-47
2022/03/10 04:48:27;;;;;;;40.00;35.70;;;;;;;0.41;94.37;102858.41;5052857;28;20545;-46
2022/03/10 04:50:55;;;;;;;37.67;34.27;;;;;;;0.47;94.43;102869.44;5053641;28;20428;-46
2022/03/10 04:53:22;;;;;;;37.40;33.63;;;;;;;0.51;94.62;102867.47;5053812;28;20451;-48
2022/03/10 04:55:51;;;;;;;37.67;33.63;;;;;;;0.54;94.49;102869.94;5053727;28;20439;-45
2022/03/10 04:58:19;;;;;;;37.13;33.33;;;;;;;0.54;94.01;102872.56;5052601;28;20459;-46
2022/03/10 05:00:47;;;;;;;37.77;33.70;;;;;;;0.60;93.62;102879.31;5052910;28;20478;-47
2022/03/10 05:03:15;;;;;;;35.07;31.53;;;;;;;0.60;93.09;102884.56;5052462;28;20889;-47
2022/03/10 05:05:43;;;;;;;36.90;33.13;;;;;;;0.62;93.42;102875.66;5053495;28;20466;-47
2022/03/10 05:08:10;;;;;;;36.00;32.77;;;;;;;0.64;93.14;102872.94;5052670;28;20463;-47
2022/03/10 05:10:38;;;;;;;34.97;31.47;;;;;;;0.63;92.66;102871.25;5053249;28;20474;-47
2022/03/10 05:13:07;;;;;;;34.97;31.57;;;;;;;0.64;92.79;102872.94;5052998;28;20461;-47
2022/03/10 05:15:35;;;;;;;37.23;33.40;;;;;;;0.62;92.17;102864.31;5053095;28;20458;-46
2022/03/10 05:18:05;;;;;;;37.70;33.90;;;;;;;0.63;91.87;102873.88;5052344;28;20502;-46
2022/03/10 05:20:35;;;;;;;37.23;33.57;;;;;;;0.61;92.13;102879.22;5052691;28;20477;-47
2022/03/10 05:23:04;;;;;;;36.10;32.77;;;;;;;0.62;92.44;102882.69;5052864;28;20470;-46
2022/03/10 05:25:33;;;;;;;38.13;34.43;;;;;;;0.63;91.94;102887.84;5052688;28;20522;-46
2022/03/10 05:28:01;;;;;;;35.70;32.30;;;;;;;0.60;91.69;102876.69;5052188;28;20903;-45
2022/03/10 05:30:31;;;;;;;37.37;33.63;;;;;;;0.56;91.60;102878.59;5052777;28;20466;-46
2022/03/10 05:32:58;;;;;;;34.73;31.23;;;;;;;0.48;90.95;102878.13;5052920;28;20461;-46
2022/03/10 05:35:29;;;;;;;40.60;35.17;;;;;;;0.43;90.26;102883.63;5052924;28;20438;-47
2022/03/10 05:37:57;;;;;;;37.30;33.60;;;;;;;0.39;90.57;102876.84;5052241;28;20463;-44
2022/03/10 05:40:25;;;;;;;36.30;32.87;;;;;;;0.35;90.39;102871.84;5052677;28;20477;-50
2022/03/10 05:42:54;;;;;;;38.73;34.83;;;;;;;0.31;90.29;102872.91;5052813;28;20557;-45
2022/03/10 05:45:23;;;;;;;37.30;33.40;;;;;;;0.28;90.77;102871.31;5052507;28;20459;-44
2022/03/10 05:47:54;;;;;;;34.97;31.77;;;;;;;0.27;90.42;102866.97;5051808;28;20539;-49
2022/03/10 05:50:23;;;;;;;38.80;34.80;;;;;;;0.27;90.67;102874.03;5052631;28;20788;-46
2022/03/10 05:52:50;;;;;;;38.87;35.27;;;;;;;0.28;91.27;102876.56;5052530;28;20465;-46
2022/03/10 05:55:19;;;;;;;35.90;32.67;;;;;;;0.32;91.78;102872.00;5052277;28;20424;-47
2022/03/10 05:57:47;;;;;;;37.30;33.57;;;;;;;0.35;91.89;102877.94;5052025;28;20801;-47
2022/03/10 06:00:16;;;;;;;41.80;37.43;;;;;;;0.40;91.98;102878.53;5052420;28;20505;-46
2022/03/10 06:02:43;;;;;;;38.03;34.10;;;;;;;0.44;91.87;102885.34;5052572;28;20538;-45
2022/03/10 06:05:12;;;;;;;39.83;35.80;;;;;;;0.46;91.70;102885.25;5052040;28;20427;-46
2022/03/10 06:07:40;;;;;;;38.90;35.00;;;;;;;0.52;91.87;102891.03;5051644;28;20455;-45
2022/03/10 06:10:09;;;;;;;38.63;34.53;;;;;;;0.57;91.91;102886.38;5052406;28;20436;-45
2022/03/10 06:12:36;;;;;;;37.53;33.83;;;;;;;0.68;92.30;102885.00;5052259;28;20541;-45
2022/03/10 06:15:06;;;;;;;39.37;35.10;;;;;;;1.22;93.58;102883.81;5052336;28;20434;-47
2022/03/10 06:17:34;;;;;;;35.33;31.93;;;;;;;1.82;94.71;102876.88;5051716;28;20833;-47
2022/03/10 06:20:02;;;;;;;33.60;30.40;;;;;;;2.40;95.75;102880.41;5052215;28;20485;-46
2022/03/10 06:22:36;;;;;;;35.93;32.27;;;;;;;2.89;90.66;102882.69;5051839;28;20469;-49
2022/03/10 06:25:06;;;;;;;33.50;29.90;;;;;;;3.28;84.38;102878.41;5052585;28;20980;-46
2022/03/10 06:27:34;;;;;;;32.93;29.37;;;;;;;3.65;80.12;102876.88;5051700;28;20832;-46
2022/03/10 06:30:01;;;;;;;36.20;32.77;;;;;;;3.94;76.57;102879.41;5052482;28;20427;-46
2022/03/10 06:32:29;;;;;;;35.00;31.73;;;;;;;4.24;75.79;102883.47;5051765;28;20451;-48
2022/03/10 06:34:59;;;;;;;35.43;31.83;;;;;;;4.53;74.85;102876.22;5051957;28;20441;-44
2022/03/10 06:37:27;;;;;;;35.90;32.20;;;;;;;4.80;73.74;102879.59;5051727;28;20433;-45
2022/03/10 06:39:56;;;;;;;35.27;32.07;;;;;;;4.91;71.54;102884.97;5051750;28;21003;-47
2022/03/10 06:42:24;;;;;;;35.97;32.43;;;;;;;4.94;71.34;102881.25;5051784;28;20455;-46
2022/03/10 06:44:51;;;;;;;36.27;32.77;;;;;;;4.89;70.17;102889.53;5051905;28;20433;-48
2022/03/10 06:47:19;;;;;;;35.17;31.97;;;;;;;5.17;70.66;102890.22;5051430;28;20531;-46
2022/03/10 06:49:46;;;;;;;35.77;32.50;;;;;;;5.30;67.97;102909.53;5052452;28;20435;-46
2022/03/10 06:52:19;;;;;;;34.13;31.37;;;;;;;5.60;69.57;102907.31;5052529;28;20447;-44
2022/03/10 06:54:46;;;;;;;34.47;31.27;;;;;;;5.81;68.45;102904.91;5052285;28;20431;-48
2022/03/10 06:57:19;;;;;;;37.00;33.50;;;;;;;5.95;68.51;102907.41;5051465;28;20427;-46
2022/03/10 06:59:46;;;;;;;37.07;33.07;;;;;;;6.01;68.48;102906.94;5052018;28;20974;-49
2022/03/10 07:02:15;;;;;;;35.03;31.73;;;;;;;5.97;66.11;102908.97;5052118;28;20501;-46
2022/03/10 07:04:43;;;;;;;51.83;46.80;;;;;;;5.78;65.29;102902.47;5052134;28;20530;-47
2022/03/10 07:07:11;;;;;;;44.33;40.10;;;;;;;5.67;65.80;102902.44;5051981;28;20526;-49
2022/03/10 07:09:39;;;;;;;41.10;36.93;;;;;;;5.50;65.98;102909.78;5051697;28;20483;-47
2022/03/10 07:12:07;;;;;;;36.00;32.73;;;;;;;5.26;65.68;102908.06;5051906;28;20813;-46
2022/03/10 07:14:38;;;;;;;35.07;31.90;;;;;;;5.11;66.60;102912.63;5052021;28;20809;-47
2022/03/10 07:17:06;;;;;;;33.47;30.20;;;;;;;4.84;67.46;102910.13;5053080;28;20466;-47
2022/03/10 07:19:34;;;;;;;31.70;28.67;;;;;;;4.56;67.20;102907.72;5054945;28;20462;-46
2022/03/10 07:22:02;;;;;;;30.67;27.77;;;;;;;4.40;68.01;102910.53;5055125;28;20538;-46
2022/03/10 07:24:30;;;;;;;31.77;28.43;;;;;;;4.35;68.41;102907.38;5055848;28;20968;-47
2022/03/10 07:27:00;;;;;;;31.57;28.33;;;;;;;4.37;69.50;102905.47;5054852;28;20431;-47
2022/03/10 07:29:27;;;;;;;30.57;28.07;;;;;;;4.44;69.29;102912.03;5054718;28;20459;-47
2022/03/10 07:31:58;;;;;;;31.40;28.40;;;;;;;4.54;69.05;102912.22;5055060;28;20975;-43
2022/03/10 07:34:26;;;;;;;29.30;26.70;;;;;;;4.78;68.75;102912.38;5055161;28;20435;-45
2022/03/10 07:36:54;;;;;;;31.30;28.30;;;;;;;4.98;68.62;102910.03;5055196;28;20435;-46
2022/03/10 07:39:22;;;;;;;29.20;26.47;;;;;;;5.19;67.06;102917.41;5054048;28;20545;-46
2022/03/10 07:41:49;;;;;;;29.10;25.90;;;;;;;5.42;65.77;102919.25;5054832;28;20968;-46
2022/03/10 07:44:17;;;;;;;27.87;25.33;;;;;;;5.76;65.34;102920.28;5054970;28;20437;-45
2022/03/10 07:46:45;;;;;;;29.70;26.60;;;;;;;5.97;64.32;102922.22;5055204;28;20510;-46
2022/03/10 07:49:14;;;;;;;27.50;24.67;;;;;;;6.08;62.92;102924.94;5054252;28;20541;-46
2022/03/10 07:51:42;;;;;;;27.33;24.10;;;;;;;6.18;62.30;102926.91;5055053;28;20441;-45
2022/03/10 07:54:10;;;;;;;26.50;23.80;;;;;;;6.19;62.14;102931.22;5054663;28;20446;-47
2022/03/10 07:56:38;;;;;;;29.50;26.47;;;;;;;6.13;62.43;102924.56;5054935;28;20427;-46
2022/03/10 07:59:05;;;;;;;27.87;24.90;;;;;;;6.11;61.81;102919.41;5053790;28;20467;-45
2022/03/10 08:01:33;;;;;;;29.37;25.80;;;;;;;6.09;62.45;102928.44;5054721;28;20475;-46
2022/03/10 08:04:01;;;;;;;28.40;25.37;;;;;;;6.00;62.15;102934.41;5054431;28;20999;-47
2022/03/10 08:06:31;;;;;;;27.63;22.97;;;;;;;5.97;62.04;102932.00;5054303;28;20431;-47
2022/03/10 08:08:58;;;;;;;26.87;22.80;;;;;;;5.95;62.84;102928.59;5053794;28;20894;-46
2022/03/10 08:11:26;;;;;;;27.33;24.50;;;;;;;5.95;63.05;102918.00;5054362;28;20537;-45
2022/03/10 08:13:54;;;;;;;30.47;23.73;;;;;;;5.91;63.42;102925.31;5054056;28;20455;-46
2022/03/10 08:16:22;;;;;;;25.37;22.50;;;;;;;5.91;63.38;102922.66;5054409;28;20427;-47
2022/03/10 08:18:50;;;;;;;27.13;22.20;;;;;;;5.97;63.33;102922.22;5053296;28;20550;-45
2022/03/10 08:21:18;;;;;;;31.23;21.87;;;;;;;6.03;62.92;102927.06;5054218;28;20832;-46
2022/03/10 08:23:46;;;;;;;23.60;20.97;;;;;;;6.06;63.54;102924.19;5054094;28;21071;-45
2022/03/10 08:26:14;;;;;;;27.33;21.57;;;;;;;6.11;62.98;102918.56;5053996;28;20954;-45
2022/03/10 08:28:42;;;;;;;24.30;21.70;;;;;;;6.25;62.89;102922.81;5052926;28;20467;-47
2022/03/10 08:31:10;;;;;;;24.27;20.13;;;;;;;6.41;62.71;102920.69;5053893;28;20431;-47
2022/03/10 08:33:38;;;;;;;23.83;19.37;;;;;;;6.45;61.70;102920.31;5053550;28;20465;-46
2022/03/10 08:36:06;;;;;;;21.43;17.53;;;;;;;6.48;61.94;102913.97;5053976;28;20437;-45
2022/03/10 08:38:35;;;;;;;27.13;19.83;;;;;;;6.61;61.25;102912.06;5053246;28;20728;-46
2022/03/10 08:41:04;;;;;;;21.60;18.57;;;;;;;6.69;61.09;102915.78;5053876;28;20483;-44
2022/03/10 08:43:33;;;;;;;23.07;19.30;;;;;;;6.82;60.17;102917.50;5053622;28;20459;-45
2022/03/10 08:46:02;;;;;;;20.60;18.13;;;;;;;6.94;60.30;102911.25;5053529;28;20470;-47
2022/03/10 08:48:32;;;;;;;25.60;18.93;;;;;;;7.07;60.02;102911.97;5052941;28;21050;-48
2022/03/10 08:51:00;;;;;;;21.87;18.57;;;;;;;7.12;59.69;102912.44;5053733;28;20439;-45
2022/03/10 08:53:28;;;;;;;20.23;17.47;;;;;;;7.16;59.21;102913.91;5053787;28;20538;-46
2022/03/10 08:55:56;;;;;;;23.20;19.40;;;;;;;7.27;59.18;102903.28;5053663;28;20431;-45
2022/03/10 08:58:26;;;;;;;20.33;18.20;;;;;;;7.46;59.28;102894.69;5052840;28;20877;-44
2022/03/10 09:00:54;;;;;;;22.43;18.83;;;;;;;7.55;58.46;102900.09;5053386;28;20428;-46
2022/03/10 09:03:42;;;;;;;21.33;19.13;;;;;;;7.67;58.87;102887.63;5053311;28;20466;-45
2022/03/10 09:06:12;;;;;;;20.67;17.80;;;;;;;7.70;58.45;102885.56;5053194;28;20843;-46
2022/03/10 09:08:39;;;;;;;20.03;17.97;;;;;;;7.82;57.94;102879.22;5052424;28;20493;-46
2022/03/10 09:11:08;;;;;;;25.90;16.47;;;;;;;7.91;57.37;102877.63;5052826;28;20446;-45
2022/03/10 09:13:36;;;;;;;20.33;17.60;;;;;;;7.94;57.77;102882.69;5053136;28;20459;-45
2022/03/10 09:16:05;;;;;;;21.23;18.20;;;;;;;8.03;57.62;102889.06;5053031;28;20530;-45
2022/03/10 09:18:34;;;;;;;19.83;17.30;;;;;;;8.21;57.18;102896.31;5052035;28;20478;-44
2022/03/10 09:21:04;;;;;;;19.50;17.57;;;;;;;8.42;56.77;102887.56;5052829;28;20432;-45
2022/03/10 09:23:31;;;;;;;19.50;17.70;;;;;;;8.45;56.07;102889.94;5052637;28;20473;-44
2022/03/10 09:25:59;;;;;;;22.17;17.60;;;;;;;8.56;55.22;102885.41;5052998;28;20530;-46
2022/03/10 09:28:30;;;;;;;18.73;16.63;;;;;;;8.64;55.51;102892.69;5052063;28;20500;-45
2022/03/10 09:30:59;;;;;;;21.30;16.13;;;;;;;8.86;56.46;102884.56;5052606;28;20848;-46
2022/03/10 09:33:27;;;;;;;23.37;18.10;;;;;;;8.94;55.49;102883.88;5052560;28;20456;-46
2022/03/10 09:35:56;;;;;;;19.60;17.20;;;;;;;8.99;55.05;102887.00;5052509;28;20439;-48
2022/03/10 09:38:23;;;;;;;21.90;17.63;;;;;;;9.14;54.51;102891.00;5051602;28;20972;-47
2022/03/10 09:40:54;;;;;;;18.70;16.77;;;;;;;9.20;53.21;102887.78;5052080;28;20503;-47
2022/03/10 09:43:22;;;;;;;19.77;16.17;;;;;;;9.30;54.45;102883.31;5052212;28;20567;-46
2022/03/10 09:45:51;;;;;;;22.10;16.17;;;;;;;9.54;53.37;102880.28;5052272;28;20431;-45
2022/03/10 09:48:20;;;;;;;22.53;17.80;;;;;;;9.52;52.81;102877.75;5051945;28;20459;-48
2022/03/10 09:50:49;;;;;;;18.10;16.40;;;;;;;9.52;52.76;102885.75;5052180;28;20427;-46
2022/03/10 09:53:18;;;;;;;20.50;16.50;;;;;;;9.55;52.84;102884.63;5052307;28;20454;-48
2022/03/10 09:55:46;;;;;;;19.60;17.60;;;;;;;9.61;52.00;102889.41;5052499;28;20470;-46
2022/03/10 09:58:14;;;;;;;19.73;17.40;;;;;;;9.80;52.54;102884.06;5051399;28;20469;-46
2022/03/10 10:00:42;;;;;;;18.17;16.27;;;;;;;9.99;51.04;102886.75;5052051;28;20526;-45
2022/03/10 10:03:10;;;;;;;16.10;14.40;;;;;;;10.15;52.07;102894.22;5051641;28;20483;-44
2022/03/10 10:05:41;;;;;;;24.90;15.03;;;;;;;10.23;51.79;102889.88;5052177;28;20485;-46
2022/03/10 10:08:13;;;;;;;18.00;16.30;;;;;;;10.31;50.68;102874.00;5051384;28;20558;-45
2022/03/10 10:10:44;;;;;;;17.77;15.87;;;;;;;10.34;49.89;102878.19;5051992;28;20435;-47
2022/03/10 10:13:28;;;;;;;20.27;16.43;;;;;;;10.37;49.55;102885.91;5051994;28;21051;-45
2022/03/10 10:15:58;;;;;;;18.77;16.70;;;;;;;10.51;50.33;102875.63;5052284;28;20526;-49
2022/03/10 10:18:27;;;;;;;19.37;16.10;;;;;;;10.57;49.44;102878.72;5051656;28;20461;-47
2022/03/10 10:21:12;;;;;;;19.20;17.20;;;;;;;10.69;50.34;102878.41;5052251;28;20435;-45
2022/03/10 10:23:40;;;;;;;17.43;15.70;;;;;;;10.70;49.52;102873.88;5052058;28;20536;-45
2022/03/10 10:26:10;;;;;;;17.57;15.57;;;;;;;10.74;48.63;102867.28;5051832;28;20854;-45
2022/03/10 10:28:46;;;;;;;19.20;16.60;;;;;;;10.73;49.00;102871.78;5051637;28;20463;-45
2022/03/10 10:31:15;;;;;;;18.23;16.33;;;;;;;10.86;48.65;102863.44;5051859;28;20435;-44
2022/03/10 10:33:55;;;;;;;24.90;17.40;;;;;;;10.78;48.32;102860.69;5051752;28;20987;-46
2022/03/10 10:36:25;;;;;;;19.20;16.90;;;;;;;10.71;47.53;102863.06;5051623;28;20423;-47
2022/03/10 10:38:55;;;;;;;21.10;17.90;;;;;;;10.67;46.75;102860.84;5051075;28;20470;-46
2022/03/10 10:41:25;;;;;;;19.80;17.80;;;;;;;10.78;47.00;102869.50;5051997;28;20657;-46
2022/03/10 10:43:55;;;;;;;20.87;17.10;;;;;;;10.79;47.31;102867.66;5051848;28;20498;-46
2022/03/10 10:46:33;;;;;;;22.23;18.43;;;;;;;10.94;46.86;102860.88;5051570;28;20419;-45
2022/03/10 10:49:04;;;;;;;19.73;17.80;;;;;;;11.02;45.63;102863.66;5051073;28;20463;-46
2022/03/10 10:51:38;;;;;;;18.70;16.73;;;;;;;11.00;45.00;102866.47;5053437;28;20427;-46
2022/03/10 10:54:08;;;;;;;24.10;18.87;;;;;;;11.05;45.13;102871.38;5055661;28;20458;-44
2022/03/10 10:56:45;;;;;;;22.90;19.63;;;;;;;11.03;45.09;102859.97;5055578;28;20822;-46
2022/03/10 10:59:26;;;;;;;19.73;17.17;;;;;;;11.07;44.06;102864.03;5054592;28;20459;-45
2022/03/10 11:02:09;;;;;;;21.90;18.93;;;;;;;11.18;44.77;102874.53;5055409;28;20797;-47
2022/03/10 11:04:39;;;;;;;20.13;17.97;;;;;;;11.30;44.92;102868.00;5055573;28;20435;-45
2022/03/10 11:07:09;;;;;;;22.70;19.10;;;;;;;11.23;44.31;102866.91;5055299;28;20435;-45
2022/03/10 11:09:39;;;;;;;22.80;19.37;;;;;;;11.21;44.18;102860.88;5054671;28;20486;-46
2022/03/10 11:12:09;;;;;;;21.57;18.60;;;;;;;11.24;44.87;102857.91;5054756;28;20558;-47
2022/03/10 11:14:37;;;;;;;21.33;18.90;;;;;;;11.23;44.17;102856.22;5055104;28;20470;-46
2022/03/10 11:17:06;;;;;;;20.57;18.23;;;;;;;11.26;44.50;102850.56;5055143;28;20435;-47
2022/03/10 11:19:35;;;;;;;22.93;19.50;;;;;;;11.36;44.88;102861.19;5054524;28;20471;-47
2022/03/10 11:22:15;;;;;;;20.57;18.53;;;;;;;11.20;43.63;102866.38;5054901;28;20435;-46
2022/03/10 11:25:01;;;;;;;21.47;18.57;;;;;;;11.34;44.79;102858.69;5055001;28;20431;-45
2022/03/10 11:27:33;;;;;;;20.93;18.63;;;;;;;11.35;45.69;102860.34;5054226;28;20441;-48
2022/03/10 11:30:02;;;;;;;23.70;18.67;;;;;;;11.46;45.04;102859.31;5054743;28;20949;-48
2022/03/10 11:32:31;;;;;;;21.80;18.53;;;;;;;11.59;44.94;102841.91;5054638;28;20991;-44